메인 페이지
METAR-TAF:

METAR-TAF

공항 :

인천, 대한민국

인천국제공항

위도: 37-28N, 경도: 126-27E, 고도: 7m

현재 날씨관측

예보는 12 시간 18분 전, 15:00시(UTC)에 발표되었습니다.
북북서12kt
온도 -1°C
습도 34%
기압 1025 hPa
시정 10km 이상
1500m 미만 상공 구름 및 적란운 없음

METAR: RKSI 201500Z 34012KT CAVOK M01/M15 Q1025 NOSIG

시각: 12:18 (03:18 UTC)

예보

예보는 16 시간 18분 전, 11:00시(UTC)에 발표되었습니다.
예보 대상 시간: 20일 12시부터 21일 18시까지 (UTC)
북북서7kt
시정 10km 이상
고도 3000ft 상공 구름 조금
고도 18000ft 상공 구름 많음
일시적
21일 05시부터 21일 11시까지 (UTC)
10kt
전환 중
21일 12시부터 21일 13시까지 (UTC)
남남동5kt

TAF: RKSI 201100Z 2012/2118 33007KT 9999 FEW030 BKN180 TNM04/2021Z TX03/2106Z TEMPO 2105/2111 27010KT BECMG 2112/2113 16005KT

4,000개 이상의 공항 관측 자료 및 예보 (METAR 및 TAF 보고).

지도상에서 검색 가능한 기상관측소가 노란 점과 빨간 점으로 표시되어 있습니다.

기상관측소 명을 보려면 표시 위로 마우스를 이동하세요.

날씨 관측과 예보를 보려면 클릭하세요.

지도 변경 : 확대하려면 엑스 표시가 있는 녹색 버튼, 축소하려면 빼기 표시가 있는 녹색 버튼, 다음 페이지의 지도를 보려면 녹색 화살표를 클릭하세요.


METAR-TAF: